sensor_id;sensor_type;location;lat;lon;timestamp;pressure;altitude;pressure_sealevel;temperature;humidity
19795;BME280;10057;59.402;17.866;2023-08-31T00:01:36;100325.56;;;14.15;86.13
19795;BME280;10057;59.402;17.866;2023-08-31T00:04:04;100315.06;;;14.12;86.32
19795;BME280;10057;59.402;17.866;2023-08-31T00:06:32;100310.66;;;14.11;86.18
19795;BME280;10057;59.402;17.866;2023-08-31T00:08:59;100307.97;;;14.11;86.12
19795;BME280;10057;59.402;17.866;2023-08-31T00:11:26;100301.78;;;14.11;86.27
19795;BME280;10057;59.402;17.866;2023-08-31T00:13:52;100301.91;;;14.09;86.42
19795;BME280;10057;59.402;17.866;2023-08-31T00:16:24;100305.41;;;14.10;86.19
19795;BME280;10057;59.402;17.866;2023-08-31T00:18:53;100313.41;;;14.10;86.25
19795;BME280;10057;59.402;17.866;2023-08-31T00:21:23;100323.31;;;14.08;86.36
19795;BME280;10057;59.402;17.866;2023-08-31T00:23:50;100307.41;;;14.06;86.47
19795;BME280;10057;59.402;17.866;2023-08-31T00:26:17;100318.16;;;14.05;86.34
19795;BME280;10057;59.402;17.866;2023-08-31T00:28:44;100318.31;;;14.02;86.49
19795;BME280;10057;59.402;17.866;2023-08-31T00:31:10;100309.47;;;14.01;86.49
19795;BME280;10057;59.402;17.866;2023-08-31T00:33:38;100314.97;;;13.98;86.36
19795;BME280;10057;59.402;17.866;2023-08-31T00:36:05;100322.91;;;13.99;86.65
19795;BME280;10057;59.402;17.866;2023-08-31T00:38:31;100326.53;;;13.98;86.30
19795;BME280;10057;59.402;17.866;2023-08-31T00:40:58;100319.56;;;13.96;86.56
19795;BME280;10057;59.402;17.866;2023-08-31T00:43:25;100309.25;;;13.90;86.27
19795;BME280;10057;59.402;17.866;2023-08-31T00:45:54;100314.41;;;13.93;86.61
19795;BME280;10057;59.402;17.866;2023-08-31T00:48:25;100304.75;;;13.90;86.59
19795;BME280;10057;59.402;17.866;2023-08-31T00:50:53;100312.19;;;13.85;86.29
19795;BME280;10057;59.402;17.866;2023-08-31T00:53:20;100315.78;;;13.84;86.39
19795;BME280;10057;59.402;17.866;2023-08-31T00:55:47;100311.75;;;13.77;86.46
19795;BME280;10057;59.402;17.866;2023-08-31T00:58:14;100313.50;;;13.78;86.40
19795;BME280;10057;59.402;17.866;2023-08-31T01:00:54;100324.91;;;13.80;86.59
19795;BME280;10057;59.402;17.866;2023-08-31T01:03:43;100324.03;;;13.80;86.35
19795;BME280;10057;59.402;17.866;2023-08-31T01:09:26;100319.06;;;13.73;86.36
19795;BME280;10057;59.402;17.866;2023-08-31T01:11:59;100311.22;;;13.70;86.40
19795;BME280;10057;59.402;17.866;2023-08-31T01:14:33;100302.66;;;13.65;86.52
19795;BME280;10057;59.402;17.866;2023-08-31T01:17:01;100301.88;;;13.63;86.55
19795;BME280;10057;59.402;17.866;2023-08-31T01:19:39;100289.94;;;13.55;86.49
19795;BME280;10057;59.402;17.866;2023-08-31T01:22:14;100296.97;;;13.56;86.61
19795;BME280;10057;59.402;17.866;2023-08-31T01:24:44;100289.44;;;13.48;86.58
19795;BME280;10057;59.402;17.866;2023-08-31T01:27:10;100290.56;;;13.44;86.33
19795;BME280;10057;59.402;17.866;2023-08-31T01:29:38;100293.28;;;13.42;86.33
19795;BME280;10057;59.402;17.866;2023-08-31T01:32:06;100279.53;;;13.34;86.37
19795;BME280;10057;59.402;17.866;2023-08-31T01:34:33;100284.00;;;13.34;86.21
19795;BME280;10057;59.402;17.866;2023-08-31T01:37:17;100283.13;;;13.33;86.29
19795;BME280;10057;59.402;17.866;2023-08-31T01:39:51;100273.53;;;13.31;86.27
19795;BME280;10057;59.402;17.866;2023-08-31T01:42:19;100273.53;;;13.31;86.43
19795;BME280;10057;59.402;17.866;2023-08-31T01:44:47;100276.94;;;13.33;86.68
19795;BME280;10057;59.402;17.866;2023-08-31T01:47:15;100268.78;;;13.36;86.71
19795;BME280;10057;59.402;17.866;2023-08-31T01:49:44;100264.25;;;13.38;86.80
19795;BME280;10057;59.402;17.866;2023-08-31T01:52:10;100257.78;;;13.42;86.85
19795;BME280;10057;59.402;17.866;2023-08-31T01:54:37;100241.22;;;13.37;86.80
19795;BME280;10057;59.402;17.866;2023-08-31T01:57:04;100257.69;;;13.43;86.76
19795;BME280;10057;59.402;17.866;2023-08-31T01:59:33;100259.25;;;13.47;86.96
19795;BME280;10057;59.402;17.866;2023-08-31T02:02:01;100256.50;;;13.49;87.00
19795;BME280;10057;59.402;17.866;2023-08-31T02:04:28;100260.97;;;13.48;87.13
19795;BME280;10057;59.402;17.866;2023-08-31T02:06:55;100260.81;;;13.51;86.89
19795;BME280;10057;59.402;17.866;2023-08-31T02:09:22;100264.41;;;13.50;86.96
19795;BME280;10057;59.402;17.866;2023-08-31T02:11:48;100252.88;;;13.50;87.15
19795;BME280;10057;59.402;17.866;2023-08-31T02:14:15;100247.53;;;13.50;87.15
19795;BME280;10057;59.402;17.866;2023-08-31T02:16:42;100246.44;;;13.54;86.89
19795;BME280;10057;59.402;17.866;2023-08-31T02:19:09;100246.19;;;13.59;87.28
19795;BME280;10057;59.402;17.866;2023-08-31T02:21:36;100246.84;;;13.62;87.35
19795;BME280;10057;59.402;17.866;2023-08-31T02:24:03;100240.50;;;13.65;87.45
19795;BME280;10057;59.402;17.866;2023-08-31T02:26:30;100244.59;;;13.70;87.35
19795;BME280;10057;59.402;17.866;2023-08-31T02:28:57;100240.81;;;13.74;87.39
19795;BME280;10057;59.402;17.866;2023-08-31T02:31:24;100241.34;;;13.81;87.54
19795;BME280;10057;59.402;17.866;2023-08-31T02:33:51;100240.28;;;13.84;87.45
19795;BME280;10057;59.402;17.866;2023-08-31T02:36:19;100237.44;;;13.87;87.57
19795;BME280;10057;59.402;17.866;2023-08-31T02:38:47;100238.22;;;13.89;87.39
19795;BME280;10057;59.402;17.866;2023-08-31T02:41:14;100237.34;;;13.88;87.33
19795;BME280;10057;59.402;17.866;2023-08-31T02:43:41;100243.44;;;13.90;87.37
19795;BME280;10057;59.402;17.866;2023-08-31T02:46:08;100242.50;;;13.91;87.28
19795;BME280;10057;59.402;17.866;2023-08-31T02:48:34;100234.75;;;13.87;87.33
19795;BME280;10057;59.402;17.866;2023-08-31T02:51:01;100238.03;;;13.92;87.42
19795;BME280;10057;59.402;17.866;2023-08-31T02:53:30;100238.97;;;13.91;87.39
19795;BME280;10057;59.402;17.866;2023-08-31T02:55:57;100241.63;;;13.91;87.04
19795;BME280;10057;59.402;17.866;2023-08-31T02:58:29;100223.03;;;13.75;86.96
19795;BME280;10057;59.402;17.866;2023-08-31T03:01:09;100236.84;;;13.82;87.00
19795;BME280;10057;59.402;17.866;2023-08-31T03:03:40;100235.28;;;13.78;86.95
19795;BME280;10057;59.402;17.866;2023-08-31T03:06:10;100230.16;;;13.74;87.18
19795;BME280;10057;59.402;17.866;2023-08-31T03:08:37;100239.88;;;13.75;87.36
19795;BME280;10057;59.402;17.866;2023-08-31T03:11:05;100245.09;;;13.77;87.50
19795;BME280;10057;59.402;17.866;2023-08-31T03:13:32;100247.59;;;13.80;87.33
19795;BME280;10057;59.402;17.866;2023-08-31T03:16:00;100237.19;;;13.75;87.17
19795;BME280;10057;59.402;17.866;2023-08-31T03:18:27;100245.19;;;13.75;87.33
19795;BME280;10057;59.402;17.866;2023-08-31T03:20:54;100249.56;;;13.77;87.21
19795;BME280;10057;59.402;17.866;2023-08-31T03:23:22;100240.22;;;13.69;87.32
19795;BME280;10057;59.402;17.866;2023-08-31T03:25:48;100242.88;;;13.69;87.27
19795;BME280;10057;59.402;17.866;2023-08-31T03:28:15;100239.66;;;13.64;87.20
19795;BME280;10057;59.402;17.866;2023-08-31T03:30:42;100246.06;;;13.60;87.24
19795;BME280;10057;59.402;17.866;2023-08-31T03:33:11;100240.16;;;13.55;87.01
19795;BME280;10057;59.402;17.866;2023-08-31T03:35:41;100239.47;;;13.51;87.22
19795;BME280;10057;59.402;17.866;2023-08-31T03:38:08;100233.47;;;13.48;87.24
19795;BME280;10057;59.402;17.866;2023-08-31T03:40:35;100244.13;;;13.48;87.00
19795;BME280;10057;59.402;17.866;2023-08-31T03:43:02;100240.50;;;13.49;87.30
19795;BME280;10057;59.402;17.866;2023-08-31T03:45:28;100224.88;;;13.43;87.32
19795;BME280;10057;59.402;17.866;2023-08-31T03:47:55;100230.81;;;13.48;87.54
19795;BME280;10057;59.402;17.866;2023-08-31T03:50:22;100229.09;;;13.47;87.34
19795;BME280;10057;59.402;17.866;2023-08-31T03:52:49;100229.69;;;13.52;87.59
19795;BME280;10057;59.402;17.866;2023-08-31T03:55:16;100225.13;;;13.54;87.34
19795;BME280;10057;59.402;17.866;2023-08-31T03:57:42;100225.88;;;13.56;87.34
19795;BME280;10057;59.402;17.866;2023-08-31T04:00:10;100228.47;;;13.58;87.19
19795;BME280;10057;59.402;17.866;2023-08-31T04:02:39;100222.19;;;13.59;87.54
19795;BME280;10057;59.402;17.866;2023-08-31T04:05:06;100222.97;;;13.61;87.52
19795;BME280;10057;59.402;17.866;2023-08-31T04:07:34;100225.44;;;13.64;87.44
19795;BME280;10057;59.402;17.866;2023-08-31T04:10:01;100211.72;;;13.56;87.63
19795;BME280;10057;59.402;17.866;2023-08-31T04:12:28;100234.03;;;13.69;87.60
19795;BME280;10057;59.402;17.866;2023-08-31T04:14:56;100227.66;;;13.71;87.62
19795;BME280;10057;59.402;17.866;2023-08-31T04:17:23;100226.72;;;13.72;87.33
19795;BME280;10057;59.402;17.866;2023-08-31T04:19:50;100222.53;;;13.68;87.67
19795;BME280;10057;59.402;17.866;2023-08-31T04:22:17;100232.91;;;13.73;87.55
19795;BME280;10057;59.402;17.866;2023-08-31T04:24:44;100219.84;;;13.68;87.33
19795;BME280;10057;59.402;17.866;2023-08-31T04:27:10;100229.56;;;13.69;87.46
19795;BME280;10057;59.402;17.866;2023-08-31T04:29:37;100230.50;;;13.68;87.50
19795;BME280;10057;59.402;17.866;2023-08-31T04:32:04;100228.78;;;13.67;87.42
19795;BME280;10057;59.402;17.866;2023-08-31T04:34:31;100223.66;;;13.64;87.39
19795;BME280;10057;59.402;17.866;2023-08-31T04:36:58;100221.06;;;13.63;87.57
19795;BME280;10057;59.402;17.866;2023-08-31T04:39:25;100214.03;;;13.62;87.25
19795;BME280;10057;59.402;17.866;2023-08-31T04:41:53;100215.66;;;13.64;87.38
19795;BME280;10057;59.402;17.866;2023-08-31T04:44:20;100214.03;;;13.62;87.52
19795;BME280;10057;59.402;17.866;2023-08-31T04:46:47;100213.16;;;13.61;87.48
19795;BME280;10057;59.402;17.866;2023-08-31T04:49:13;100221.16;;;13.61;87.72
19795;BME280;10057;59.402;17.866;2023-08-31T04:51:40;100217.53;;;13.62;87.32
19795;BME280;10057;59.402;17.866;2023-08-31T04:54:08;100228.88;;;13.66;87.86
19795;BME280;10057;59.402;17.866;2023-08-31T04:56:35;100224.69;;;13.62;87.71
19795;BME280;10057;59.402;17.866;2023-08-31T04:59:02;100236.03;;;13.65;87.74
19795;BME280;10057;59.402;17.866;2023-08-31T05:01:29;100236.03;;;13.65;87.74
19795;BME280;10057;59.402;17.866;2023-08-31T05:03:56;100245.66;;;13.68;87.95
19795;BME280;10057;59.402;17.866;2023-08-31T05:06:24;100243.75;;;13.70;87.88
19795;BME280;10057;59.402;17.866;2023-08-31T05:08:51;100228.97;;;13.64;87.78
19795;BME280;10057;59.402;17.866;2023-08-31T05:11:17;100229.28;;;13.74;87.72
19795;BME280;10057;59.402;17.866;2023-08-31T05:13:44;100227.50;;;13.74;87.46
19795;BME280;10057;59.402;17.866;2023-08-31T05:16:11;100211.50;;;13.74;87.47
19795;BME280;10057;59.402;17.866;2023-08-31T05:18:38;100215.53;;;13.82;87.96
19795;BME280;10057;59.402;17.866;2023-08-31T05:21:06;100203.06;;;13.82;87.89
19795;BME280;10057;59.402;17.866;2023-08-31T05:23:33;100209.63;;;13.91;87.75
19795;BME280;10057;59.402;17.866;2023-08-31T05:26:00;100216.53;;;13.95;87.55
19795;BME280;10057;59.402;17.866;2023-08-31T05:28:28;100208.22;;;13.99;87.76
19795;BME280;10057;59.402;17.866;2023-08-31T05:31:01;100214.06;;;14.06;87.67
19795;BME280;10057;59.402;17.866;2023-08-31T05:33:29;100209.28;;;14.11;87.69
19795;BME280;10057;59.402;17.866;2023-08-31T05:36:01;100204.63;;;14.15;88.00
19795;BME280;10057;59.402;17.866;2023-08-31T05:38:29;100216.56;;;14.23;87.63
19795;BME280;10057;59.402;17.866;2023-08-31T05:41:14;100207.25;;;14.31;87.69
19795;BME280;10057;59.402;17.866;2023-08-31T05:43:40;100215.63;;;14.39;87.90
19795;BME280;10057;59.402;17.866;2023-08-31T05:46:08;100200.50;;;14.39;87.95
19795;BME280;10057;59.402;17.866;2023-08-31T05:48:35;100213.19;;;14.50;87.71
19795;BME280;10057;59.402;17.866;2023-08-31T05:51:05;100215.47;;;14.56;87.91
19795;BME280;10057;59.402;17.866;2023-08-31T05:53:32;100207.28;;;14.59;87.81
19795;BME280;10057;59.402;17.866;2023-08-31T05:56:00;100207.88;;;14.64;87.73
19795;BME280;10057;59.402;17.866;2023-08-31T05:58:32;100211.66;;;14.75;87.83
19795;BME280;10057;59.402;17.866;2023-08-31T06:01:00;100211.38;;;14.79;87.97
19795;BME280;10057;59.402;17.866;2023-08-31T06:03:27;100220.53;;;14.89;87.97
19795;BME280;10057;59.402;17.866;2023-08-31T06:05:54;100216.41;;;14.98;87.95
19795;BME280;10057;59.402;17.866;2023-08-31T06:08:21;100208.41;;;14.98;87.90
19795;BME280;10057;59.402;17.866;2023-08-31T06:10:48;100215.06;;;15.05;87.77
19795;BME280;10057;59.402;17.866;2023-08-31T06:13:15;100218.28;;;15.10;87.70
19795;BME280;10057;59.402;17.866;2023-08-31T06:15:42;100216.47;;;15.11;87.87
19795;BME280;10057;59.402;17.866;2023-08-31T06:18:11;100224.22;;;15.15;87.75
19795;BME280;10057;59.402;17.866;2023-08-31T06:20:38;100222.19;;;15.19;88.13
19795;BME280;10057;59.402;17.866;2023-08-31T06:23:04;100217.50;;;15.23;87.77
19795;BME280;10057;59.402;17.866;2023-08-31T06:25:31;100220.66;;;15.29;87.99
19795;BME280;10057;59.402;17.866;2023-08-31T06:27:58;100212.97;;;15.37;88.19
19795;BME280;10057;59.402;17.866;2023-08-31T06:30:28;100214.41;;;15.43;88.11
19795;BME280;10057;59.402;17.866;2023-08-31T06:32:55;100219.16;;;15.52;87.96
19795;BME280;10057;59.402;17.866;2023-08-31T06:35:22;100214.44;;;15.56;87.91
19795;BME280;10057;59.402;17.866;2023-08-31T06:37:49;100212.00;;;15.65;87.84
19795;BME280;10057;59.402;17.866;2023-08-31T06:40:17;100216.78;;;15.75;87.92
19795;BME280;10057;59.402;17.866;2023-08-31T06:42:44;100209.31;;;15.80;87.87
19795;BME280;10057;59.402;17.866;2023-08-31T06:45:10;100211.56;;;15.86;87.77
19795;BME280;10057;59.402;17.866;2023-08-31T06:47:37;100213.72;;;15.94;87.78
19795;BME280;10057;59.402;17.866;2023-08-31T06:50:04;100205.59;;;15.95;87.72
19795;BME280;10057;59.402;17.866;2023-08-31T06:52:31;100203.28;;;16.03;87.62
19795;BME280;10057;59.402;17.866;2023-08-31T06:54:58;100203.59;;;16.11;87.83
19795;BME280;10057;59.402;17.866;2023-08-31T06:57:27;100207.13;;;16.25;87.96
19795;BME280;10057;59.402;17.866;2023-08-31T06:59:54;100204.78;;;16.33;87.78
19795;BME280;10057;59.402;17.866;2023-08-31T07:02:21;100201.47;;;16.42;87.95
19795;BME280;10057;59.402;17.866;2023-08-31T07:04:52;100188.72;;;16.46;87.58
19795;BME280;10057;59.402;17.866;2023-08-31T07:07:19;100188.94;;;16.55;87.42
19795;BME280;10057;59.402;17.866;2023-08-31T07:09:46;100182.81;;;16.66;87.66
19795;BME280;10057;59.402;17.866;2023-08-31T07:12:14;100193.63;;;16.77;87.30
19795;BME280;10057;59.402;17.866;2023-08-31T07:14:41;100173.06;;;16.78;87.34
19795;BME280;10057;59.402;17.866;2023-08-31T07:17:08;100189.00;;;16.92;86.78
19795;BME280;10057;59.402;17.866;2023-08-31T07:19:36;100185.88;;;16.98;86.73
19795;BME280;10057;59.402;17.866;2023-08-31T07:22:04;100176.63;;;17.02;86.81
19795;BME280;10057;59.402;17.866;2023-08-31T07:24:33;100186.88;;;17.21;86.76
19795;BME280;10057;59.402;17.866;2023-08-31T07:27:05;100183.53;;;17.31;86.40
19795;BME280;10057;59.402;17.866;2023-08-31T07:29:32;100188.09;;;17.41;86.28
19795;BME280;10057;59.402;17.866;2023-08-31T07:31:59;100183.84;;;17.50;85.85
19795;BME280;10057;59.402;17.866;2023-08-31T07:34:28;100177.53;;;17.51;85.39
19795;BME280;10057;59.402;17.866;2023-08-31T07:36:59;100191.66;;;17.53;84.68
19795;BME280;10057;59.402;17.866;2023-08-31T07:39:26;100182.91;;;17.51;84.93
19795;BME280;10057;59.402;17.866;2023-08-31T07:41:54;100195.31;;;17.52;84.82
19795;BME280;10057;59.402;17.866;2023-08-31T07:44:21;100198.63;;;17.56;84.50
19795;BME280;10057;59.402;17.866;2023-08-31T07:46:48;100188.66;;;17.58;84.50
19795;BME280;10057;59.402;17.866;2023-08-31T07:49:14;100200.41;;;17.68;84.34
19795;BME280;10057;59.402;17.866;2023-08-31T07:51:41;100202.94;;;17.82;84.09
19795;BME280;10057;59.402;17.866;2023-08-31T07:54:08;100200.72;;;17.87;83.68
19795;BME280;10057;59.402;17.866;2023-08-31T07:56:37;100206.63;;;17.92;83.30
19795;BME280;10057;59.402;17.866;2023-08-31T07:59:03;100203.94;;;17.92;82.50
19795;BME280;10057;59.402;17.866;2023-08-31T08:01:30;100205.25;;;17.87;82.24
19795;BME280;10057;59.402;17.866;2023-08-31T08:03:57;100194.56;;;17.74;82.20
19795;BME280;10057;59.402;17.866;2023-08-31T08:06:25;100206.81;;;17.78;81.99
19795;BME280;10057;59.402;17.866;2023-08-31T08:08:52;100214.88;;;17.78;81.63
19795;BME280;10057;59.402;17.866;2023-08-31T08:11:19;100204.66;;;17.70;81.55
19795;BME280;10057;59.402;17.866;2023-08-31T08:13:45;100209.41;;;17.67;81.74
19795;BME280;10057;59.402;17.866;2023-08-31T08:16:12;100213.28;;;17.63;81.65
19795;BME280;10057;59.402;17.866;2023-08-31T08:18:39;100213.53;;;17.60;81.59
19795;BME280;10057;59.402;17.866;2023-08-31T08:21:06;100228.00;;;17.57;81.65
19795;BME280;10057;59.402;17.866;2023-08-31T08:23:33;100226.44;;;17.55;81.40
19795;BME280;10057;59.402;17.866;2023-08-31T08:25:59;100230.06;;;17.53;81.50
19795;BME280;10057;59.402;17.866;2023-08-31T08:28:26;100220.53;;;17.49;81.38
19795;BME280;10057;59.402;17.866;2023-08-31T08:30:53;100229.56;;;17.48;81.53
19795;BME280;10057;59.402;17.866;2023-08-31T08:33:20;100222.59;;;17.46;81.38
19795;BME280;10057;59.402;17.866;2023-08-31T08:35:47;100217.13;;;17.47;81.41
19795;BME280;10057;59.402;17.866;2023-08-31T08:38:13;100219.34;;;17.53;81.48
19795;BME280;10057;59.402;17.866;2023-08-31T08:40:40;100218.47;;;17.53;81.54
19795;BME280;10057;59.402;17.866;2023-08-31T08:43:07;100216.09;;;17.61;81.56
19795;BME280;10057;59.402;17.866;2023-08-31T08:45:38;100217.69;;;17.64;81.40
19795;BME280;10057;59.402;17.866;2023-08-31T08:48:06;100208.69;;;17.65;81.41
19795;BME280;10057;59.402;17.866;2023-08-31T08:50:35;100213.06;;;17.66;81.28
19795;BME280;10057;59.402;17.866;2023-08-31T08:53:03;100207.34;;;17.70;81.26
19795;BME280;10057;59.402;17.866;2023-08-31T08:55:30;100209.69;;;17.75;81.32
19795;BME280;10057;59.402;17.866;2023-08-31T08:57:58;100205.38;;;17.85;81.68
19795;BME280;10057;59.402;17.866;2023-08-31T09:00:30;100208.59;;;18.02;81.44
19795;BME280;10057;59.402;17.866;2023-08-31T09:02:58;100214.09;;;18.11;81.18
19795;BME280;10057;59.402;17.866;2023-08-31T09:05:25;100205.59;;;18.17;80.99
19795;BME280;10057;59.402;17.866;2023-08-31T09:08:09;100210.34;;;18.25;80.51
19795;BME280;10057;59.402;17.866;2023-08-31T09:10:39;100203.28;;;18.35;80.27
19795;BME280;10057;59.402;17.866;2023-08-31T09:13:10;100205.50;;;18.41;79.95
19795;BME280;10057;59.402;17.866;2023-08-31T09:15:44;100207.09;;;18.44;79.65
19795;BME280;10057;59.402;17.866;2023-08-31T09:18:29;100201.84;;;18.42;79.31
19795;BME280;10057;59.402;17.866;2023-08-31T09:20:56;100208.19;;;18.41;79.07
19795;BME280;10057;59.402;17.866;2023-08-31T09:23:24;100205.97;;;18.35;79.13
19795;BME280;10057;59.402;17.866;2023-08-31T09:25:53;100206.72;;;18.26;79.20
19795;BME280;10057;59.402;17.866;2023-08-31T09:28:25;100206.72;;;18.26;78.99
19795;BME280;10057;59.402;17.866;2023-08-31T09:31:07;100216.09;;;18.20;79.13
19795;BME280;10057;59.402;17.866;2023-08-31T09:33:35;100207.88;;;18.11;78.92
19795;BME280;10057;59.402;17.866;2023-08-31T09:36:07;100209.59;;;18.12;78.90
19795;BME280;10057;59.402;17.866;2023-08-31T09:38:44;100205.34;;;18.09;78.99
19795;BME280;10057;59.402;17.866;2023-08-31T09:41:12;100202.06;;;18.17;79.06
19795;BME280;10057;59.402;17.866;2023-08-31T09:43:38;100201.69;;;18.21;79.19
19795;BME280;10057;59.402;17.866;2023-08-31T09:46:07;100202.69;;;18.32;78.90
19795;BME280;10057;59.402;17.866;2023-08-31T09:48:36;100208.78;;;18.34;78.70
19795;BME280;10057;59.402;17.866;2023-08-31T09:51:05;100199.38;;;18.28;78.53
19795;BME280;10057;59.402;17.866;2023-08-31T09:53:36;100203.28;;;18.35;78.55
19795;BME280;10057;59.402;17.866;2023-08-31T09:56:06;100201.34;;;18.37;78.54
19795;BME280;10057;59.402;17.866;2023-08-31T09:58:34;100207.94;;;18.44;78.35
19795;BME280;10057;59.402;17.866;2023-08-31T10:01:01;100199.16;;;18.42;78.30
19795;BME280;10057;59.402;17.866;2023-08-31T10:03:31;100211.00;;;18.51;78.34
19795;BME280;10057;59.402;17.866;2023-08-31T10:05:58;100216.53;;;18.61;77.99
19795;BME280;10057;59.402;17.866;2023-08-31T10:08:27;100211.53;;;18.67;77.79
19795;BME280;10057;59.402;17.866;2023-08-31T10:10:59;100215.56;;;18.73;77.07
19795;BME280;10057;59.402;17.866;2023-08-31T10:13:31;100212.22;;;18.69;77.08
19795;BME280;10057;59.402;17.866;2023-08-31T10:16:04;100206.31;;;18.77;77.36
19795;BME280;10057;59.402;17.866;2023-08-31T10:18:32;100209.22;;;18.85;76.92
19795;BME280;10057;59.402;17.866;2023-08-31T10:21:02;100211.53;;;18.90;76.59
19795;BME280;10057;59.402;17.866;2023-08-31T10:23:31;100222.53;;;18.87;76.48
19795;BME280;10057;59.402;17.866;2023-08-31T10:28:27;100225.34;;;18.85;76.15
19795;BME280;10057;59.402;17.866;2023-08-31T10:31:07;100233.16;;;18.88;76.34
19795;BME280;10057;59.402;17.866;2023-08-31T10:36:41;100221.94;;;18.94;75.83
19795;BME280;10057;59.402;17.866;2023-08-31T10:39:15;100226.56;;;18.92;75.80
19795;BME280;10057;59.402;17.866;2023-08-31T10:41:54;100225.22;;;18.87;75.59
19795;BME280;10057;59.402;17.866;2023-08-31T10:44:30;100223.88;;;18.81;75.66
19795;BME280;10057;59.402;17.866;2023-08-31T10:47:03;100220.94;;;18.73;75.60
19795;BME280;10057;59.402;17.866;2023-08-31T10:49:31;100218.84;;;18.65;75.82
19795;BME280;10057;59.402;17.866;2023-08-31T10:52:18;100226.56;;;18.70;75.83
19795;BME280;10057;59.402;17.866;2023-08-31T10:55:05;100228.25;;;18.71;75.98
19795;BME280;10057;59.402;17.866;2023-08-31T10:57:36;100212.00;;;18.61;75.40
19795;BME280;10057;59.402;17.866;2023-08-31T11:00:03;100229.56;;;18.65;75.35
19795;BME280;10057;59.402;17.866;2023-08-31T11:02:36;100225.44;;;18.61;75.15
19795;BME280;10057;59.402;17.866;2023-08-31T11:05:10;100227.38;;;18.59;75.15
19795;BME280;10057;59.402;17.866;2023-08-31T11:07:39;100212.25;;;18.47;75.11
19795;BME280;10057;59.402;17.866;2023-08-31T11:12:43;100235.06;;;18.53;75.68
19795;BME280;10057;59.402;17.866;2023-08-31T11:15:18;100234.81;;;18.56;75.66
19795;BME280;10057;59.402;17.866;2023-08-31T11:17:46;100240.69;;;18.61;75.65
19795;BME280;10057;59.402;17.866;2023-08-31T11:20:18;100237.28;;;18.70;75.82
19795;BME280;10057;59.402;17.866;2023-08-31T11:22:49;100236.34;;;18.82;75.55
19795;BME280;10057;59.402;17.866;2023-08-31T11:25:17;100223.13;;;18.90;75.32
19795;BME280;10057;59.402;17.866;2023-08-31T11:27:58;100228.75;;;18.99;74.86
19795;BME280;10057;59.402;17.866;2023-08-31T11:30:27;100229.75;;;18.98;74.98
19795;BME280;10057;59.402;17.866;2023-08-31T11:32:54;100235.72;;;19.01;75.02
19795;BME280;10057;59.402;17.866;2023-08-31T11:35:22;100237.91;;;18.96;74.82
19795;BME280;10057;59.402;17.866;2023-08-31T11:37:52;100244.91;;;18.87;74.79
19795;BME280;10057;59.402;17.866;2023-08-31T11:40:19;100240.31;;;18.65;74.73
19795;BME280;10057;59.402;17.866;2023-08-31T11:42:51;100246.41;;;18.45;74.97
19795;BME280;10057;59.402;17.866;2023-08-31T11:45:18;100250.13;;;18.20;75.43
19795;BME280;10057;59.402;17.866;2023-08-31T11:47:46;100246.66;;;17.95;76.07
19795;BME280;10057;59.402;17.866;2023-08-31T11:50:14;100247.78;;;17.80;76.50
19795;BME280;10057;59.402;17.866;2023-08-31T11:52:43;100248.69;;;17.68;77.20
19795;BME280;10057;59.402;17.866;2023-08-31T11:55:14;100250.00;;;17.62;77.60
19795;BME280;10057;59.402;17.866;2023-08-31T11:57:50;100246.06;;;17.55;77.99
19795;BME280;10057;59.402;17.866;2023-08-31T12:00:19;100241.13;;;17.49;78.41
19795;BME280;10057;59.402;17.866;2023-08-31T12:03:00;100237.69;;;17.47;78.68
19795;BME280;10057;59.402;17.866;2023-08-31T12:05:28;100238.44;;;17.49;78.73
19795;BME280;10057;59.402;17.866;2023-08-31T12:07:56;100247.97;;;17.53;79.06
19795;BME280;10057;59.402;17.866;2023-08-31T12:10:26;100239.84;;;17.55;79.25
19795;BME280;10057;59.402;17.866;2023-08-31T12:12:53;100237.88;;;17.57;79.52
19795;BME280;10057;59.402;17.866;2023-08-31T12:15:22;100239.72;;;17.56;79.34
19795;BME280;10057;59.402;17.866;2023-08-31T12:17:49;100240.78;;;17.53;79.33
19795;BME280;10057;59.402;17.866;2023-08-31T12:20:25;100244.66;;;17.49;79.66
19795;BME280;10057;59.402;17.866;2023-08-31T12:22:55;100248.09;;;17.51;79.39
19795;BME280;10057;59.402;17.866;2023-08-31T12:25:22;100251.63;;;17.52;79.83
19795;BME280;10057;59.402;17.866;2023-08-31T12:27:49;100251.88;;;17.49;79.77
19795;BME280;10057;59.402;17.866;2023-08-31T12:30:19;100254.66;;;17.47;79.75
19795;BME280;10057;59.402;17.866;2023-08-31T12:32:46;100248.56;;;17.45;79.80
19795;BME280;10057;59.402;17.866;2023-08-31T12:35:12;100245.13;;;17.43;79.69
19795;BME280;10057;59.402;17.866;2023-08-31T12:37:41;100241.06;;;17.38;80.06
19795;BME280;10057;59.402;17.866;2023-08-31T12:40:08;100247.06;;;17.41;80.03
19795;BME280;10057;59.402;17.866;2023-08-31T12:42:36;100246.84;;;17.44;80.36
19795;BME280;10057;59.402;17.866;2023-08-31T12:45:03;100241.25;;;17.47;80.28
19795;BME280;10057;59.402;17.866;2023-08-31T12:47:34;100242.63;;;17.53;80.30
19795;BME280;10057;59.402;17.866;2023-08-31T12:50:01;100243.88;;;17.60;80.69
19795;BME280;10057;59.402;17.866;2023-08-31T12:52:35;100244.81;;;17.72;80.27
19795;BME280;10057;59.402;17.866;2023-08-31T12:55:02;100238.78;;;17.81;80.73
19795;BME280;10057;59.402;17.866;2023-08-31T12:57:30;100238.06;;;17.90;80.41
19795;BME280;10057;59.402;17.866;2023-08-31T12:59:57;100244.69;;;17.97;80.17